Time;durP1;ratioP1;P1;durP2;ratioP2;P2;SDS_P1;SDS_P2;PMS_P1;PMS_P2;Temp;Humidity;BMP_temperature;BMP_pressure;BME280_temperature;BME280_humidity;BME280_pressure;Samples;Min_cycle;Max_cycle;Signal;HPM_P1;HPM_P2
2022/10/27 00:01:32;;;;;;;;;;;;;;;;;;5152669;27;20023;-59
2022/10/27 00:04:17;;;;;;;;;;;;;;;;;;;;;
2022/10/27 00:06:55;;;;;;;7.03;3.00;;;;;;;;;;5109498;28;20091;-59
2022/10/27 00:12:38;;;;;;;8.73;4.75;;;;;;;;;;5104656;28;20081;-60
2022/10/27 00:18:06;;;;;;;8.75;4.18;;;;;;;;;;5108838;28;20086;-59
2022/10/27 00:20:41;;;;;;;8.43;4.80;;;;;;;;;;5089794;28;20036;-59
2022/10/27 00:23:29;;;;;;;;;;;;;;;;;;;;;
2022/10/27 00:29:17;;;;;;;;;;;;;;;;;;;;;
2022/10/27 00:31:47;;;;;;;5.90;4.72;;;;;;;;;;5100956;28;20082;-59
2022/10/27 00:34:34;;;;;;;5.65;4.47;;;;;;;;;;5099502;27;20144;-60
2022/10/27 00:37:16;;;;;;;9.27;4.80;;;;;;;;;;5151838;27;20027;-59
2022/10/27 00:42:40;;;;;;;6.13;4.28;;;;;;;;;;5068205;28;20029;-59
2022/10/27 00:48:25;;;;;;;;;;;;;;;;;;5152411;27;20068;-59
2022/10/27 00:51:41;;;;;;;8.20;4.82;;;;;;;;;;5151859;27;19904;-59
2022/10/27 00:54:13;;;;;;;7.35;4.65;;;;;;;;;;5089989;27;20546;-59
2022/10/27 01:09:53;;;;;;;5.30;4.80;;;;;;;;;;4950673;29;20068;-59
2022/10/27 01:12:44;;;;;;;;;;;;;;;;;;;;;
2022/10/27 01:15:27;;;;;;;;;;;;;;;;;;;;;
2022/10/27 01:17:59;;;;;;;9.98;5.45;;;;;;;;;;5064108;28;20048;-59
2022/10/27 01:20:56;;;;;;;8.82;5.15;;;;;;;;;;5050204;28;20064;-59
2022/10/27 01:23:41;;;;;;;6.88;5.63;;;;;;;;;;5070086;27;20042;-60
2022/10/27 01:26:26;;;;;;;9.82;5.63;;;;;;;;;;5150868;27;20034;-60
2022/10/27 01:31:45;;;;;;;6.57;5.15;;;;;;;;;;5135296;27;20027;-59
2022/10/27 01:34:45;;;;;;;;;;;;;;;;;;;;;
2022/10/27 01:37:33;;;;;;;12.43;5.03;;;;;;;;;;5150909;27;20066;-59
2022/10/27 01:46:21;;;;;;;11.10;6.13;;;;;;;;;;5111295;27;20038;-59
2022/10/27 01:52:16;;;;;;;13.55;5.63;;;;;;;;;;5107162;28;20070;-59
2022/10/27 01:55:05;;;;;;;8.40;5.25;;;;;;;;;;5148521;27;20035;-60
2022/10/27 02:04:01;;;;;;;6.95;5.65;;;;;;;;;;5106341;28;20046;-59
2022/10/27 02:09:43;;;;;;;;;;;;;;;;;;5067087;28;20063;-59
2022/10/27 02:12:42;;;;;;;5.20;4.30;;;;;;;;;;5085684;27;19903;-59
2022/10/27 02:15:37;;;;;;;9.95;5.15;;;;;;;;;;5150238;27;20027;-59
2022/10/27 02:18:16;;;;;;;7.43;5.80;;;;;;;;;;5150489;27;20024;-59
2022/10/27 02:21:02;;;;;;;8.00;5.45;;;;;;;;;;5131186;27;20023;-59
2022/10/27 02:23:41;;;;;;;6.90;5.22;;;;;;;;;;5130860;27;20068;-59
2022/10/27 02:30:08;;;;;;;5.70;4.75;;;;;;;;;;5106666;28;20569;-59
2022/10/27 02:32:40;;;;;;;8.13;5.10;;;;;;;;;;5079339;28;20032;-59
2022/10/27 02:35:18;;;;;;;8.25;4.88;;;;;;;;;;5090065;28;20058;-60
2022/10/27 02:38:04;;;;;;;5.05;4.45;;;;;;;;;;5106855;28;20037;-59
2022/10/27 02:40:49;;;;;;;7.72;5.00;;;;;;;;;;5107633;28;20028;-59
2022/10/27 02:43:39;;;;;;;6.30;5.13;;;;;;;;;;5107707;28;20070;-59
2022/10/27 02:46:24;;;;;;;9.93;5.75;;;;;;;;;;5106400;28;20048;-59
2022/10/27 02:49:06;;;;;;;7.80;5.32;;;;;;;;;;5106779;28;20040;-59
2022/10/27 02:52:06;;;;;;;;;;;;;;;;;;;;;
2022/10/27 03:01:27;;;;;;;;;;;;;;;;;;;;;
2022/10/27 03:04:07;;;;;;;7.18;5.05;;;;;;;;;;5106066;28;20803;-59
2022/10/27 03:06:48;;;;;;;10.27;4.57;;;;;;;;;;5105150;28;20040;-59
2022/10/27 03:09:15;;;;;;;9.38;5.80;;;;;;;;;;5106537;28;20120;-59
2022/10/27 03:15:34;;;;;;;7.00;4.88;;;;;;;;;;5011108;28;20072;-59
2022/10/27 03:18:13;;;;;;;6.70;4.45;;;;;;;;;;4962079;29;20122;-59
2022/10/27 03:26:26;;;;;;;8.02;4.82;;;;;;;;;;5039563;28;20050;-59
2022/10/27 03:29:31;;;;;;;8.70;5.72;;;;;;;;;;5095391;28;20043;-59
2022/10/27 03:32:24;;;;;;;6.93;5.68;;;;;;;;;;5061176;28;20093;-59
2022/10/27 03:35:15;;;;;;;8.38;6.25;;;;;;;;;;5090702;28;20090;-59
2022/10/27 03:38:16;;;;;;;9.05;4.70;;;;;;;;;;5116377;28;20468;-59
2022/10/27 03:41:10;;;;;;;8.00;5.00;;;;;;;;;;5134446;28;20059;-59
2022/10/27 03:43:46;;;;;;;8.25;5.97;;;;;;;;;;5133855;28;20349;-59
2022/10/27 03:46:33;;;;;;;6.40;5.68;;;;;;;;;;5136315;28;20028;-59
2022/10/27 03:52:17;;;;;;;9.63;5.63;;;;;;;;;;5135541;28;20465;-59
2022/10/27 03:54:50;;;;;;;9.80;5.05;;;;;;;;;;5116762;28;20468;-59
2022/10/27 03:57:46;;;;;;;11.18;5.82;;;;;;;;;;5134751;28;20063;-59
2022/10/27 04:00:47;;;;;;;8.00;5.00;;;;;;;;;;5127113;28;20038;-59
2022/10/27 04:03:36;;;;;;;6.70;4.85;;;;;;;;;;5136211;28;20031;-59
2022/10/27 04:06:17;;;;;;;5.13;4.22;;;;;;;;;;5121821;28;20035;-59
2022/10/27 04:09:04;;;;;;;6.20;4.47;;;;;;;;;;5138844;28;20516;-59
2022/10/27 04:14:36;;;;;;;6.18;4.85;;;;;;;;;;5134717;28;20504;-59
2022/10/27 04:17:15;;;;;;;8.75;5.35;;;;;;;;;;5132894;28;20039;-59
2022/10/27 04:27:09;;;;;;;;;;;;;;;;;;;;;
2022/10/27 04:30:04;;;;;;;;;;;;;;;;;;;;;
2022/10/27 04:35:36;;;;;;;10.32;6.13;;;;;;;;;;5028469;28;20056;-58
2022/10/27 04:41:36;;;;;;;;;;;;;;;;;;;;;
2022/10/27 04:50:59;;;;;;;6.93;6.22;;;;;;;;;;5032360;28;20239;-58
2022/10/27 04:53:55;;;;;;;11.63;5.28;;;;;;;;;;5025166;28;20387;-58
2022/10/27 04:56:58;;;;;;;9.90;5.72;;;;;;;;;;5040879;28;20040;-58
2022/10/27 05:02:32;;;;;;;;;;;;;;;;;;5093480;27;20433;-58
2022/10/27 05:05:10;;;;;;;7.30;5.65;;;;;;;;;;5125096;27;19934;-58
2022/10/27 05:10:53;;;;;;;;;;;;;;;;;;;;;
2022/10/27 05:17:06;;;;;;;8.90;5.25;;;;;;;;;;5047803;28;20029;-58
2022/10/27 05:25:43;;;;;;;7.82;5.50;;;;;;;;;;5151231;27;20046;-58
2022/10/27 05:28:26;;;;;;;5.53;4.72;;;;;;;;;;5151354;27;20028;-58
2022/10/27 05:31:10;;;;;;;7.88;5.47;;;;;;;;;;5127503;27;20504;-58
2022/10/27 05:33:41;;;;;;;7.30;4.90;;;;;;;;;;5152231;27;20051;-58
2022/10/27 05:36:31;;;;;;;6.32;4.78;;;;;;;;;;5137534;27;20043;-58
2022/10/27 05:39:27;;;;;;;10.75;4.93;;;;;;;;;;5028206;28;20038;-58
2022/10/27 05:42:05;;;;;;;10.60;5.70;;;;;;;;;;5010118;28;20026;-58
2022/10/27 05:44:57;;;;;;;7.57;5.55;;;;;;;;;;5115196;28;20059;-58
2022/10/27 05:47:50;;;;;;;9.82;6.68;;;;;;;;;;5130951;28;20036;-58
2022/10/27 05:50:53;;;;;;;8.73;6.63;;;;;;;;;;5129382;28;20071;-58
2022/10/27 05:59:23;;;;;;;8.38;5.55;;;;;;;;;;5072533;28;20057;-58
2022/10/27 06:02:18;;;;;;;10.77;5.78;;;;;;;;;;5087205;28;20037;-58
2022/10/27 06:05:02;;;;;;;11.45;6.32;;;;;;;;;;5078955;28;20542;-59
2022/10/27 06:07:37;;;;;;;7.20;5.13;;;;;;;;;;5073739;28;20381;-58
2022/10/27 06:10:15;;;;;;;8.00;5.22;;;;;;;;;;5073535;28;20029;-59
2022/10/27 06:12:58;;;;;;;7.07;5.20;;;;;;;;;;5073796;28;20205;-58
2022/10/27 06:15:56;;;;;;;;;;;;;;;;;;;;;
2022/10/27 06:18:54;;;;;;;8.00;5.63;;;;;;;;;;5074330;28;20029;-58
2022/10/27 06:21:34;;;;;;;7.13;5.18;;;;;;;;;;5085086;28;20101;-58
2022/10/27 06:24:22;;;;;;;13.23;6.05;;;;;;;;;;5086753;28;20088;-58
2022/10/27 06:27:21;;;;;;;7.60;6.18;;;;;;;;;;5085674;28;20040;-58
2022/10/27 06:29:57;;;;;;;6.75;5.47;;;;;;;;;;5066377;28;20033;-58
2022/10/27 06:33:00;;;;;;;14.60;5.72;;;;;;;;;;5065590;28;20040;-58
2022/10/27 06:35:42;;;;;;;8.70;5.35;;;;;;;;;;5024062;28;20080;-58
2022/10/27 06:38:15;;;;;;;9.30;6.07;;;;;;;;;;5086132;28;20097;-58
2022/10/27 06:40:46;;;;;;;9.50;6.68;;;;;;;;;;5082947;28;20033;-58
2022/10/27 06:45:58;;;;;;;8.27;6.95;;;;;;;;;;5084507;28;20039;-58
2022/10/27 06:48:37;;;;;;;10.80;6.43;;;;;;;;;;5066744;28;20104;-58
2022/10/27 06:51:05;;;;;;;8.50;6.90;;;;;;;;;;5083469;28;20050;-58
2022/10/27 06:53:35;;;;;;;9.30;6.03;;;;;;;;;;5142269;27;20039;-58
2022/10/27 06:56:27;;;;;;;;;;;;;;;;;;;;;
2022/10/27 07:05:29;;;;;;;;;;;;;;;;;;;;;
2022/10/27 07:08:02;;;;;;;9.70;6.47;;;;;;;;;;5093935;27;20059;-59
2022/10/27 07:19:46;;;;;;;10.70;6.32;;;;;;;;;;5135082;28;20062;-59
2022/10/27 07:22:42;;;;;;;10.90;8.07;;;;;;;;;;5148830;28;20028;-59
2022/10/27 07:25:14;;;;;;;7.97;6.45;;;;;;;;;;5145589;28;20031;-59
2022/10/27 07:30:54;;;;;;;;;;;;;;;;;;;;;
2022/10/27 07:33:36;;;;;;;9.60;7.00;;;;;;;;;;5127538;28;20061;-59
2022/10/27 07:36:50;;;;;;;;;;;;;;;;;;;;;
2022/10/27 07:39:25;;;;;;;10.00;8.07;;;;;;;;;;5143980;28;20083;-58
2022/10/27 07:42:23;;;;;;;;;;;;;;;;;;;;;
2022/10/27 07:45:11;;;;;;;12.98;6.57;;;;;;;;;;5108068;28;20058;-59
2022/10/27 07:48:01;;;;;;;14.80;7.88;;;;;;;;;;5128694;28;20045;-59
2022/10/27 07:53:49;;;;;;;10.75;7.95;;;;;;;;;;5147573;28;20030;-59
2022/10/27 07:56:36;;;;;;;;;;;;;;;;;;;;;
2022/10/27 07:59:30;;;;;;;;;;;;;;;;;;;;;
2022/10/27 08:02:45;;;;;;;;;;;;;;;;;;;;;
2022/10/27 08:05:29;;;;;;;12.55;7.38;;;;;;;;;;5148038;27;20054;-59
2022/10/27 08:08:17;;;;;;;11.77;7.78;;;;;;;;;;5151064;27;20045;-59
2022/10/27 08:11:26;;;;;;;8.70;6.90;;;;;;;;;;5134011;27;20446;-59
2022/10/27 08:14:33;;;;;;;11.68;7.57;;;;;;;;;;5151677;27;20041;-59
2022/10/27 08:17:33;;;;;;;9.55;6.75;;;;;;;;;;5149983;27;20034;-59
2022/10/27 08:23:39;;;;;;;9.35;6.60;;;;;;;;;;5152855;27;20039;-59
2022/10/27 08:26:29;;;;;;;8.43;5.80;;;;;;;;;;5117032;27;20111;-58
2022/10/27 08:29:17;;;;;;;5.78;5.15;;;;;;;;;;5153478;27;20041;-58
2022/10/27 08:31:53;;;;;;;8.18;5.72;;;;;;;;;;5151922;27;20034;-59
2022/10/27 08:34:42;;;;;;;8.75;5.53;;;;;;;;;;5152031;27;20034;-58
2022/10/27 08:40:37;;;;;;;11.93;4.75;;;;;;;;;;5068825;28;20033;-58
2022/10/27 08:43:35;;;;;;;8.48;4.88;;;;;;;;;;5069068;28;20032;-59
2022/10/27 08:48:57;;;;;;;7.60;4.80;;;;;;;;;;5129776;27;20039;-59
2022/10/27 08:51:37;;;;;;;10.93;4.63;;;;;;;;;;5151188;27;20057;-59
2022/10/27 08:54:26;;;;;;;8.05;5.53;;;;;;;;;;5152655;27;20399;-58
2022/10/27 08:57:23;;;;;;;7.30;4.68;;;;;;;;;;5049369;28;20049;-59
2022/10/27 09:00:16;;;;;;;8.48;4.63;;;;;;;;;;5033902;28;20033;-58
2022/10/27 09:03:19;;;;;;;7.68;5.65;;;;;;;;;;5048645;28;20045;-59
2022/10/27 09:06:33;;;;;;;10.77;4.80;;;;;;;;;;5048159;28;20047;-59
2022/10/27 09:09:26;;;;;;;6.88;4.05;;;;;;;;;;4989323;28;20039;-59
2022/10/27 09:12:17;;;;;;;7.35;4.13;;;;;;;;;;4989327;28;20526;-59
2022/10/27 09:14:45;;;;;;;;;;;;;;;;;;4989648;28;20035;-58
2022/10/27 09:17:33;;;;;;;;;;;;;;;;;;;;;
2022/10/27 09:20:56;;;;;;;6.97;4.40;;;;;;;;;;5029616;28;20056;-58
2022/10/27 09:23:47;;;;;;;13.20;3.88;;;;;;;;;;4989812;28;20069;-59
2022/10/27 09:26:34;;;;;;;5.53;3.15;;;;;;;;;;4989628;28;20536;-58
2022/10/27 09:32:56;;;;;;;4.70;3.10;;;;;;;;;;5043547;28;20060;-59
2022/10/27 09:35:51;;;;;;;12.25;4.22;;;;;;;;;;5117505;27;20051;-59
2022/10/27 09:38:39;;;;;;;6.72;2.95;;;;;;;;;;5148835;27;20436;-59
2022/10/27 09:41:20;;;;;;;12.32;3.88;;;;;;;;;;5151433;27;20045;-58
2022/10/27 09:47:20;;;;;;;10.45;3.67;;;;;;;;;;5118125;27;20050;-58
2022/10/27 09:52:49;;;;;;;5.80;2.45;;;;;;;;;;5151320;27;20030;-59
2022/10/27 09:58:27;;;;;;;7.70;2.90;;;;;;;;;;5127206;27;20034;-59
2022/10/27 10:07:01;;;;;;;9.25;3.42;;;;;;;;;;5107692;27;20027;-59
2022/10/27 10:09:51;;;;;;;5.10;3.40;;;;;;;;;;5135944;27;20049;-59
2022/10/27 10:12:21;;;;;;;12.17;5.77;;;;;;;;;;5114061;28;20515;-59
2022/10/27 10:18:00;;;;;;;9.48;3.22;;;;;;;;;;5052704;28;20025;-59
2022/10/27 10:23:50;;;;;;;;;;;;;;;;;;5122346;27;20449;-58
2022/10/27 10:26:24;;;;;;;5.85;3.17;;;;;;;;;;5116489;27;19915;-59
2022/10/27 10:32:32;;;;;;;4.90;2.92;;;;;;;;;;5136188;27;20087;-59
2022/10/27 10:35:22;;;;;;;4.75;2.65;;;;;;;;;;5032038;28;20065;-59
2022/10/27 10:37:59;;;;;;;6.03;3.93;;;;;;;;;;5033142;28;20084;-59
2022/10/27 10:40:43;;;;;;;;;;;;;;;;;;;;;
2022/10/27 10:43:59;;;;;;;7.47;3.08;;;;;;;;;;5136313;27;20106;-59
2022/10/27 10:46:57;;;;;;;;;;;;;;;;;;;;;
2022/10/27 10:49:35;;;;;;;6.25;2.70;;;;;;;;;;5135780;27;20110;-59
2022/10/27 10:52:49;;;;;;;6.95;3.35;;;;;;;;;;5136924;27;20528;-59
2022/10/27 10:55:38;;;;;;;3.35;2.15;;;;;;;;;;5031841;28;20534;-59
2022/10/27 10:58:37;;;;;;;3.42;2.72;;;;;;;;;;5012585;28;20041;-59
2022/10/27 11:01:38;;;;;;;3.15;1.85;;;;;;;;;;5119557;27;20488;-59
2022/10/27 11:04:14;;;;;;;4.18;2.47;;;;;;;;;;5129630;27;20392;-59
2022/10/27 11:07:02;;;;;;;5.53;2.17;;;;;;;;;;5117504;27;20368;-59
2022/10/27 11:09:52;;;;;;;5.47;1.83;;;;;;;;;;5136172;27;20023;-59
2022/10/27 11:13:12;;;;;;;5.18;2.25;;;;;;;;;;5135492;27;20019;-59
2022/10/27 11:16:03;;;;;;;5.28;2.17;;;;;;;;;;5011280;28;20486;-59
2022/10/27 11:18:35;;;;;;;5.00;2.33;;;;;;;;;;5117533;28;20061;-59
2022/10/27 11:24:15;;;;;;;7.03;1.92;;;;;;;;;;5115898;28;20023;-59
2022/10/27 11:30:17;;;;;;;;;;;;;;;;;;;;;
2022/10/27 11:33:22;;;;;;;5.35;2.28;;;;;;;;;;5133512;28;20508;-59
2022/10/27 11:36:07;;;;;;;5.53;2.53;;;;;;;;;;5052541;28;20410;-59
2022/10/27 11:39:10;;;;;;;7.22;2.40;;;;;;;;;;5097457;27;20527;-59
2022/10/27 11:41:58;;;;;;;3.85;2.00;;;;;;;;;;5127752;27;20550;-59
2022/10/27 11:44:47;;;;;;;7.60;2.45;;;;;;;;;;5139493;27;20019;-59
2022/10/27 11:47:51;;;;;;;;;;;;;;;;;;;;;
2022/10/27 11:50:52;;;;;;;4.47;2.40;;;;;;;;;;5053257;27;20031;-59
2022/10/27 11:56:35;;;;;;;3.40;1.85;;;;;;;;;;5123700;27;20107;-59
2022/10/27 11:59:36;;;;;;;11.73;1.92;;;;;;;;;;5139529;27;20039;-59
2022/10/27 12:02:40;;;;;;;2.75;1.73;;;;;;;;;;5138943;27;20116;-60
2022/10/27 12:05:45;;;;;;;7.80;2.17;;;;;;;;;;5009407;28;20033;-60
2022/10/27 12:08:32;;;;;;;2.40;1.23;;;;;;;;;;5035312;28;20038;-60
2022/10/27 12:11:16;;;;;;;4.50;2.25;;;;;;;;;;5125962;27;20031;-59
2022/10/27 12:14:07;;;;;;;4.05;2.65;;;;;;;;;;5119553;27;20377;-59
2022/10/27 12:17:07;;;;;;;;;;;;;;;;;;;;;
2022/10/27 12:19:33;;;;;;;;;;;;;;;;;;5134373;27;20460;-60
2022/10/27 12:22:35;;;;;;;3.90;1.90;;;;;;;;;;5138523;27;19946;-60
2022/10/27 12:25:31;;;;;;;6.97;2.03;;;;;;;;;;5018634;28;20030;-59
2022/10/27 12:28:26;;;;;;;7.93;2.45;;;;;;;;;;5119736;27;20468;-60
2022/10/27 12:31:16;;;;;;;;;;;;;;;;;;;;;
2022/10/27 12:34:08;;;;;;;4.25;1.52;;;;;;;;;;5123104;27;20429;-59
2022/10/27 12:37:10;;;;;;;5.60;2.38;;;;;;;;;;5117631;27;20126;-60
2022/10/27 12:40:05;;;;;;;4.78;2.28;;;;;;;;;;5131814;27;20035;-60
2022/10/27 12:46:13;;;;;;;3.90;1.52;;;;;;;;;;5120965;27;20154;-60
2022/10/27 12:49:08;;;;;;;3.42;1.65;;;;;;;;;;5118132;27;20047;-60
2022/10/27 12:52:02;;;;;;;4.70;2.20;;;;;;;;;;5136882;27;20027;-60
2022/10/27 12:54:58;;;;;;;3.60;1.45;;;;;;;;;;5138250;27;20102;-60
2022/10/27 12:57:48;;;;;;;4.97;1.98;;;;;;;;;;5135435;27;20067;-59
2022/10/27 13:00:34;;;;;;;4.07;2.08;;;;;;;;;;5137317;27;20053;-60
2022/10/27 13:03:30;;;;;;;5.03;2.05;;;;;;;;;;5121534;27;20486;-60
2022/10/27 13:06:05;;;;;;;7.80;2.20;;;;;;;;;;5046063;27;20041;-60
2022/10/27 13:08:50;;;;;;;4.75;1.95;;;;;;;;;;5138421;27;20019;-60
2022/10/27 13:11:47;;;;;;;3.30;1.90;;;;;;;;;;5113534;27;20468;-60
2022/10/27 13:14:31;;;;;;;1.48;0.90;;;;;;;;;;5137742;27;20465;-60
2022/10/27 13:17:03;;;;;;;4.43;2.15;;;;;;;;;;5118089;27;20126;-60
2022/10/27 13:19:50;;;;;;;5.13;1.42;;;;;;;;;;5137592;27;20023;-60
2022/10/27 13:23:19;;;;;;;;;;;;;;;;;;;;;
2022/10/27 13:35:18;;;;;;;6.13;1.85;;;;;;;;;;5133538;27;20084;-60
2022/10/27 13:38:03;;;;;;;4.95;1.95;;;;;;;;;;5093575;28;20048;-60
2022/10/27 13:41:10;;;;;;;3.10;1.85;;;;;;;;;;5078456;28;20077;-60
2022/10/27 13:50:18;;;;;;;5.35;1.90;;;;;;;;;;5094488;28;20058;-60
2022/10/27 13:55:43;;;;;;;6.07;2.20;;;;;;;;;;5098291;28;20417;-60
2022/10/27 13:58:28;;;;;;;6.20;1.90;;;;;;;;;;5093736;28;20055;-60
2022/10/27 14:01:08;;;;;;;;;;;;;;;;;;;;;
2022/10/27 14:03:52;;;;;;;3.07;1.47;;;;;;;;;;5132001;27;20027;-60
2022/10/27 14:06:43;;;;;;;;;;;;;;;;;;;;;
2022/10/27 14:09:25;;;;;;;3.30;1.35;;;;;;;;;;5050449;27;20487;-60
2022/10/27 14:12:12;;;;;;;6.43;1.70;;;;;;;;;;5136058;27;20034;-60
2022/10/27 14:14:59;;;;;;;4.68;1.70;;;;;;;;;;5129972;27;20042;-60
2022/10/27 14:20:41;;;;;;;5.45;1.77;;;;;;;;;;5129104;27;20076;-60
2022/10/27 14:23:33;;;;;;;2.95;1.98;;;;;;;;;;5116655;27;20043;-60
2022/10/27 14:26:26;;;;;;;7.72;2.63;;;;;;;;;;5135340;27;20062;-60
2022/10/27 14:28:59;;;;;;;4.80;2.22;;;;;;;;;;5116716;27;20477;-60
2022/10/27 14:31:36;;;;;;;4.80;1.77;;;;;;;;;;5092781;28;20058;-60
2022/10/27 14:37:26;;;;;;;2.83;1.60;;;;;;;;;;5092259;28;20099;-60
2022/10/27 14:40:14;;;;;;;4.30;1.75;;;;;;;;;;5112666;28;20059;-60
2022/10/27 14:43:20;;;;;;;10.55;2.00;;;;;;;;;;5095653;28;20516;-60
2022/10/27 14:46:18;;;;;;;5.50;2.47;;;;;;;;;;5112248;28;20051;-60
2022/10/27 14:49:13;;;;;;;3.22;1.48;;;;;;;;;;5077039;28;20040;-60
2022/10/27 14:51:59;;;;;;;5.35;1.70;;;;;;;;;;5113465;28;20020;-60
2022/10/27 14:58:02;;;;;;;3.45;1.55;;;;;;;;;;5060857;28;20032;-60
2022/10/27 15:06:45;;;;;;;5.45;2.20;;;;;;;;;;5056021;28;20047;-60
2022/10/27 15:15:41;;;;;;;3.40;1.65;;;;;;;;;;5012485;28;20089;-60
2022/10/27 15:18:56;;;;;;;3.13;1.55;;;;;;;;;;5055735;28;20545;-57
2022/10/27 15:21:47;;;;;;;5.50;1.73;;;;;;;;;;4976120;28;20027;-57
2022/10/27 15:24:42;;;;;;;7.30;2.72;;;;;;;;;;4978427;28;20033;-59
2022/10/27 15:27:37;;;;;;;;;;;;;;;;;;;;;
2022/10/27 15:30:35;;;;;;;3.35;1.48;;;;;;;;;;5102859;28;20122;-59
2022/10/27 15:33:32;;;;;;;4.05;2.20;;;;;;;;;;5112861;28;20374;-59
2022/10/27 15:36:21;;;;;;;6.65;2.30;;;;;;;;;;5114728;28;20042;-59
2022/10/27 15:38:53;;;;;;;3.10;1.88;;;;;;;;;;5134864;27;20039;-59
2022/10/27 15:41:58;;;;;;;6.00;1.85;;;;;;;;;;5100551;28;20069;-59
2022/10/27 15:44:46;;;;;;;8.07;2.70;;;;;;;;;;5083451;28;20140;-59
2022/10/27 15:50:40;;;;;;;6.03;2.10;;;;;;;;;;5124425;28;20369;-59
2022/10/27 15:53:42;;;;;;;6.88;2.13;;;;;;;;;;5121085;28;20128;-59
2022/10/27 15:56:27;;;;;;;5.07;1.98;;;;;;;;;;5147302;28;20459;-59
2022/10/27 15:59:30;;;;;;;9.88;2.33;;;;;;;;;;5147556;28;20020;-59
2022/10/27 16:02:13;;;;;;;5.53;2.67;;;;;;;;;;5147959;28;20061;-59
2022/10/27 16:04:52;;;;;;;6.63;2.22;;;;;;;;;;5145367;28;20102;-59
2022/10/27 16:07:37;;;;;;;6.03;2.50;;;;;;;;;;5147362;28;20027;-59
2022/10/27 16:10:16;;;;;;;5.03;2.08;;;;;;;;;;5148348;28;20028;-59
2022/10/27 16:13:05;;;;;;;4.28;2.35;;;;;;;;;;5111979;28;20031;-59
2022/10/27 16:15:39;;;;;;;6.63;2.47;;;;;;;;;;5129964;28;20036;-59
2022/10/27 16:18:26;;;;;;;6.43;2.03;;;;;;;;;;5148339;28;20049;-59
2022/10/27 16:27:04;;;;;;;5.30;2.83;;;;;;;;;;5108873;28;20047;-59
2022/10/27 16:29:40;;;;;;;6.28;2.83;;;;;;;;;;5091480;28;20077;-59
2022/10/27 16:35:17;;;;;;;5.65;2.88;;;;;;;;;;5058219;28;20021;-59
2022/10/27 16:38:09;;;;;;;5.75;2.47;;;;;;;;;;5059018;28;20148;-59
2022/10/27 16:43:40;;;;;;;6.57;2.95;;;;;;;;;;5105069;28;20092;-59
2022/10/27 16:46:28;;;;;;;5.28;2.85;;;;;;;;;;5104274;28;20077;-59
2022/10/27 16:49:22;;;;;;;4.90;3.67;;;;;;;;;;5105156;28;20024;-59
2022/10/27 16:52:35;;;;;;;5.30;2.83;;;;;;;;;;5126056;27;20472;-59
2022/10/27 16:55:18;;;;;;;8.35;3.10;;;;;;;;;;5034286;28;20503;-59
2022/10/27 17:01:15;;;;;;;5.55;3.08;;;;;;;;;;5034161;28;20079;-59
2022/10/27 17:03:59;;;;;;;3.75;2.53;;;;;;;;;;5080288;27;20031;-59
2022/10/27 17:06:45;;;;;;;6.63;2.75;;;;;;;;;;5136072;27;20046;-59
2022/10/27 17:12:59;;;;;;;6.25;2.85;;;;;;;;;;5091582;27;20030;-59
2022/10/27 17:22:14;;;;;;;5.50;2.90;;;;;;;;;;5129221;27;20287;-59
2022/10/27 17:25:14;;;;;;;5.95;2.75;;;;;;;;;;5033188;28;20585;-59
2022/10/27 17:27:52;;;;;;;6.68;2.80;;;;;;;;;;5003261;28;20037;-59
2022/10/27 17:30:53;;;;;;;3.58;2.35;;;;;;;;;;5034008;28;20029;-59
2022/10/27 17:33:23;;;;;;;5.53;3.00;;;;;;;;;;4998964;27;20121;-59
2022/10/27 17:39:27;;;;;;;7.60;3.38;;;;;;;;;;5112530;27;20051;-59
2022/10/27 17:42:22;;;;;;;4.18;2.97;;;;;;;;;;5137312;27;20083;-59
2022/10/27 17:45:00;;;;;;;5.30;2.95;;;;;;;;;;5137469;27;20035;-59
2022/10/27 17:47:48;;;;;;;7.40;3.35;;;;;;;;;;5137064;27;20043;-59
2022/10/27 17:50:40;;;;;;;4.05;2.50;;;;;;;;;;5115992;27;20058;-59
2022/10/27 17:53:12;;;;;;;5.72;3.33;;;;;;;;;;5101153;27;20491;-59
2022/10/27 17:56:10;;;;;;;6.75;2.80;;;;;;;;;;5119086;27;20054;-59
2022/10/27 17:59:02;;;;;;;6.63;3.25;;;;;;;;;;5118028;27;20122;-59
2022/10/27 18:07:52;;;;;;;4.65;2.83;;;;;;;;;;5093477;28;20039;-59
2022/10/27 18:13:41;;;;;;;4.20;2.55;;;;;;;;;;5066249;28;20092;-60
2022/10/27 18:16:53;;;;;;;6.90;3.15;;;;;;;;;;5076388;28;20068;-59
2022/10/27 18:19:29;;;;;;;5.40;2.92;;;;;;;;;;4993348;28;20484;-59
2022/10/27 18:22:25;;;;;;;5.75;2.42;;;;;;;;;;4993729;28;20045;-59
2022/10/27 18:25:06;;;;;;;4.32;2.47;;;;;;;;;;4976797;28;20449;-59
2022/10/27 18:27:53;;;;;;;7.13;3.10;;;;;;;;;;5039445;28;20189;-59
2022/10/27 18:30:37;;;;;;;4.57;2.80;;;;;;;;;;5072854;28;20219;-59
2022/10/27 18:33:20;;;;;;;7.60;3.08;;;;;;;;;;5072846;28;20028;-59
2022/10/27 18:36:17;;;;;;;10.10;2.78;;;;;;;;;;5072094;28;20437;-59
2022/10/27 18:39:04;;;;;;;3.83;2.38;;;;;;;;;;5133565;27;20050;-59
2022/10/27 18:41:42;;;;;;;5.93;3.25;;;;;;;;;;5093682;27;20046;-60
2022/10/27 18:44:31;;;;;;;;;;;;;;;;;;;;;
2022/10/27 18:47:13;;;;;;;5.85;2.90;;;;;;;;;;5066707;27;20050;-59
2022/10/27 18:49:56;;;;;;;3.17;2.28;;;;;;;;;;5135607;27;20023;-59
2022/10/27 18:52:29;;;;;;;7.38;2.53;;;;;;;;;;5116655;27;20480;-59
2022/10/27 18:58:24;;;;;;;2.90;2.00;;;;;;;;;;5135202;27;20427;-60
2022/10/27 19:00:50;;;;;;;7.07;2.97;;;;;;;;;;5101413;27;20093;-60
2022/10/27 19:03:25;;;;;;;5.10;2.35;;;;;;;;;;5117623;27;20109;-60
2022/10/27 19:06:23;;;;;;;5.70;2.58;;;;;;;;;;5135017;27;20533;-60
2022/10/27 19:12:01;;;;;;;9.93;2.65;;;;;;;;;;5092155;28;20028;-60
2022/10/27 19:15:25;;;;;;;;;;;;;;;;;;;;;
2022/10/27 19:18:09;;;;;;;7.00;3.60;;;;;;;;;;5032031;28;20029;-60
2022/10/27 19:20:35;;;;;;;5.13;3.13;;;;;;;;;;5115633;27;20122;-59
2022/10/27 19:26:12;;;;;;;3.97;2.55;;;;;;;;;;5135156;28;20034;-59
2022/10/27 19:28:57;;;;;;;9.80;3.30;;;;;;;;;;5117181;28;20477;-59
2022/10/27 19:35:07;;;;;;;;;;;;;;;;;;;;;
2022/10/27 19:37:51;;;;;;;5.43;2.88;;;;;;;;;;5135153;27;20106;-60
2022/10/27 19:40:36;;;;;;;;;;;;;;;;;;;;;
2022/10/27 19:43:13;;;;;;;10.70;3.15;;;;;;;;;;5109989;28;20437;-59
2022/10/27 19:45:55;;;;;;;9.95;2.47;;;;;;;;;;5091990;28;20039;-59
2022/10/27 19:51:29;;;;;;;4.05;2.28;;;;;;;;;;5031821;28;20095;-59
2022/10/27 19:54:39;;;;;;;12.00;3.40;;;;;;;;;;5032616;28;20495;-59
2022/10/27 19:57:20;;;;;;;5.55;2.97;;;;;;;;;;5032230;28;20040;-59
2022/10/27 20:06:21;;;;;;;;;;;;;;;;;;;;;
2022/10/27 20:09:00;;;;;;;;;;;;;;;;;;;;;
2022/10/27 20:11:40;;;;;;;6.07;2.50;;;;;;;;;;5081039;28;20096;-60
2022/10/27 20:14:12;;;;;;;4.65;2.90;;;;;;;;;;5045419;28;20031;-59
2022/10/27 20:17:30;;;;;;;3.92;2.10;;;;;;;;;;5100095;27;20437;-59
2022/10/27 20:20:21;;;;;;;;;;;;;;;;;;;;;
2022/10/27 20:25:56;;;;;;;5.10;2.92;;;;;;;;;;5138416;27;20422;-59
2022/10/27 20:28:49;;;;;;;5.88;2.60;;;;;;;;;;5078473;28;20509;-59
2022/10/27 20:31:46;;;;;;;4.40;2.47;;;;;;;;;;5082505;28;20036;-59
2022/10/27 20:37:43;;;;;;;3.17;2.30;;;;;;;;;;5034837;28;20139;-59
2022/10/27 20:40:26;;;;;;;6.85;2.38;;;;;;;;;;5094135;28;20127;-59
2022/10/27 20:46:07;;;;;;;8.18;2.17;;;;;;;;;;5080794;28;20040;-59
2022/10/27 20:49:01;;;;;;;13.00;3.00;;;;;;;;;;5095518;28;20032;-59
2022/10/27 20:51:27;;;;;;;5.03;2.40;;;;;;;;;;5094164;28;20060;-59
2022/10/27 20:54:12;;;;;;;6.30;2.63;;;;;;;;;;5094674;28;20039;-59
2022/10/27 20:57:22;;;;;;;;;;;;;;;;;;;;;
2022/10/27 21:00:05;;;;;;;;;;;;;;;;;;;;;
2022/10/27 21:02:47;;;;;;;7.50;2.92;;;;;;;;;;5112086;28;20517;-59
2022/10/27 21:08:35;;;;;;;3.47;2.40;;;;;;;;;;5128698;28;20078;-59
2022/10/27 21:11:22;;;;;;;5.15;3.38;;;;;;;;;;5109169;28;20050;-59
2022/10/27 21:14:07;;;;;;;5.85;3.35;;;;;;;;;;5128442;28;20023;-59
2022/10/27 21:19:50;;;;;;;6.75;3.60;;;;;;;;;;5117328;28;20032;-59
2022/10/27 21:22:35;;;;;;;4.90;3.35;;;;;;;;;;5127943;28;20053;-59
2022/10/27 21:25:21;;;;;;;11.13;3.83;;;;;;;;;;5109703;28;20024;-59
2022/10/27 21:31:27;;;;;;;4.18;2.45;;;;;;;;;;5084316;28;20060;-59
2022/10/27 21:34:24;;;;;;;8.57;3.17;;;;;;;;;;5085537;28;20024;-59
2022/10/27 21:36:53;;;;;;;7.82;2.70;;;;;;;;;;5126590;28;20027;-59
2022/10/27 21:45:28;;;;;;;4.70;2.60;;;;;;;;;;5064388;28;20035;-59
2022/10/27 21:48:13;;;;;;;7.95;3.20;;;;;;;;;;5048549;28;20101;-59
2022/10/27 21:50:53;;;;;;;5.40;3.10;;;;;;;;;;5064025;28;20029;-59
2022/10/27 21:53:34;;;;;;;7.88;2.83;;;;;;;;;;5057417;28;20036;-59
2022/10/27 21:56:19;;;;;;;4.57;2.92;;;;;;;;;;5047363;28;20033;-59
2022/10/27 21:59:17;;;;;;;4.15;2.40;;;;;;;;;;5047814;28;20096;-59
2022/10/27 22:02:04;;;;;;;8.30;3.00;;;;;;;;;;5040207;28;20057;-59
2022/10/27 22:04:45;;;;;;;4.85;2.95;;;;;;;;;;5064883;28;20089;-59
2022/10/27 22:10:12;;;;;;;10.73;3.20;;;;;;;;;;5059085;28;20033;-59
2022/10/27 22:16:08;;;;;;;;;;;;;;;;;;;;;
2022/10/27 22:24:15;;;;;;;5.30;3.13;;;;;;;;;;5099479;27;20035;-59
2022/10/27 22:30:04;;;;;;;7.18;3.10;;;;;;;;;;5147448;27;20037;-59
2022/10/27 22:35:57;;;;;;;9.07;3.15;;;;;;;;;;5129230;27;20031;-59
2022/10/27 22:45:25;;;;;;;7.22;2.78;;;;;;;;;;4973471;28;20042;-59
2022/10/27 22:48:06;;;;;;;5.25;2.45;;;;;;;;;;4988157;28;20050;-59
2022/10/27 22:50:43;;;;;;;3.83;2.42;;;;;;;;;;5004691;28;20038;-59
2022/10/27 22:53:16;;;;;;;4.82;3.33;;;;;;;;;;5004993;28;20030;-59
2022/10/27 22:56:10;;;;;;;8.48;3.28;;;;;;;;;;5063260;28;20029;-59
2022/10/27 22:58:43;;;;;;;6.82;2.90;;;;;;;;;;5047261;28;20033;-59
2022/10/27 23:04:39;;;;;;;3.83;2.65;;;;;;;;;;5003978;28;20436;-59
2022/10/27 23:07:42;;;;;;;;;;;;;;;;;;;;;
2022/10/27 23:10:56;;;;;;;;;;;;;;;;;;;;;
2022/10/27 23:13:44;;;;;;;6.05;2.97;;;;;;;;;;5024029;28;20120;-58